createdAt,value
2022-08-31T00:00:09.241Z,14.90
2022-08-31T00:02:54.154Z,11.20
2022-08-31T00:05:21.274Z,10.50
2022-08-31T00:07:47.372Z,13.00
2022-08-31T00:10:18.263Z,10.50
2022-08-31T00:12:47.715Z,13.00
2022-08-31T00:15:19.749Z,11.10
2022-08-31T00:17:48.777Z,12.80
2022-08-31T00:20:32.369Z,14.10
2022-08-31T00:23:04.795Z,13.60
2022-08-31T00:25:33.708Z,13.40
2022-08-31T00:27:59.810Z,10.70
2022-08-31T00:30:26.240Z,8.90
2022-08-31T00:32:52.437Z,10.90
2022-08-31T00:35:18.952Z,10.90
2022-08-31T00:37:45.123Z,9.50
2022-08-31T00:40:11.795Z,12.60
2022-08-31T00:42:37.998Z,9.20
2022-08-31T00:45:04.600Z,9.70
2022-08-31T00:47:31.446Z,11.20
2022-08-31T00:49:58.994Z,7.80
2022-08-31T00:52:30.450Z,8.60
2022-08-31T00:55:17.495Z,8.00
2022-08-31T00:57:47.693Z,10.80
2022-08-31T01:00:18.322Z,8.00
2022-08-31T01:02:45.061Z,10.50
2022-08-31T01:05:12.867Z,10.20
2022-08-31T01:07:40.369Z,7.30
2022-08-31T01:10:08.063Z,11.30
2022-08-31T01:12:34.783Z,7.90
2022-08-31T01:15:04.596Z,10.70
2022-08-31T01:17:33.837Z,8.00
2022-08-31T01:20:27.353Z,11.40
2022-08-31T01:23:10.907Z,10.20
2022-08-31T01:25:39.455Z,8.90
2022-08-31T01:28:08.719Z,11.10
2022-08-31T01:30:35.700Z,8.70
2022-08-31T01:33:02.702Z,10.50
2022-08-31T01:35:29.502Z,9.80
2022-08-31T01:37:57.602Z,11.60
2022-08-31T01:40:35.758Z,14.50
2022-08-31T01:43:02.510Z,14.70
2022-08-31T01:45:29.218Z,10.40
2022-08-31T01:47:55.336Z,8.20
2022-08-31T01:50:21.436Z,11.50
2022-08-31T01:52:47.471Z,13.30
2022-08-31T01:55:13.702Z,10.30
2022-08-31T01:57:39.818Z,11.20
2022-08-31T02:00:09.238Z,12.20
2022-08-31T02:02:35.457Z,9.10
2022-08-31T02:05:01.619Z,10.70
2022-08-31T02:07:27.732Z,10.60
2022-08-31T02:09:54.201Z,9.10
2022-08-31T02:12:20.304Z,13.20
2022-08-31T02:14:46.427Z,17.40
2022-08-31T02:17:12.698Z,12.00
2022-08-31T02:19:38.766Z,14.40
2022-08-31T02:22:04.897Z,12.00
2022-08-31T02:24:31.472Z,11.70
2022-08-31T02:26:57.696Z,12.10
2022-08-31T02:29:23.811Z,10.10
2022-08-31T02:31:50.261Z,9.50
2022-08-31T02:34:16.864Z,10.90
2022-08-31T02:36:44.859Z,11.60
2022-08-31T02:39:11.953Z,11.50
2022-08-31T02:41:40.641Z,9.70
2022-08-31T02:44:06.772Z,9.20
2022-08-31T02:46:33.143Z,10.40
2022-08-31T02:49:01.872Z,10.20
2022-08-31T02:51:28.004Z,13.00
2022-08-31T02:53:54.228Z,12.80
2022-08-31T02:56:20.316Z,14.90
2022-08-31T02:58:46.497Z,9.30
2022-08-31T03:01:12.779Z,10.20
2022-08-31T03:03:38.810Z,9.70
2022-08-31T03:06:05.279Z,10.40
2022-08-31T03:08:31.414Z,10.90
2022-08-31T03:10:57.593Z,13.30
2022-08-31T03:13:23.684Z,13.70
2022-08-31T03:15:49.857Z,8.20
2022-08-31T03:18:16.121Z,9.60
2022-08-31T03:20:42.285Z,9.70
2022-08-31T03:23:08.876Z,14.10
2022-08-31T03:25:36.092Z,11.70
2022-08-31T03:28:05.759Z,9.70
2022-08-31T03:30:32.160Z,9.20
2022-08-31T03:33:02.578Z,14.00
2022-08-31T03:35:29.943Z,11.40
2022-08-31T03:37:56.142Z,13.30
2022-08-31T03:40:22.290Z,12.20
2022-08-31T03:42:49.549Z,9.30
2022-08-31T03:45:16.098Z,12.10
2022-08-31T03:47:44.514Z,11.20
2022-08-31T03:50:11.318Z,12.70
2022-08-31T03:52:38.419Z,9.70
2022-08-31T03:55:06.565Z,11.40
2022-08-31T03:57:34.453Z,11.70
2022-08-31T04:00:00.643Z,8.30
2022-08-31T04:02:26.830Z,14.60
2022-08-31T04:04:54.228Z,9.20
2022-08-31T04:07:21.563Z,10.20
2022-08-31T04:09:49.909Z,11.50
2022-08-31T04:12:16.882Z,13.90
2022-08-31T04:14:43.034Z,14.10
2022-08-31T04:17:10.957Z,13.20
2022-08-31T04:19:40.570Z,14.30
2022-08-31T04:22:08.167Z,12.40
2022-08-31T04:24:35.319Z,8.40
2022-08-31T04:27:01.436Z,12.60
2022-08-31T04:29:27.622Z,12.60
2022-08-31T04:31:53.747Z,9.10
2022-08-31T04:34:19.965Z,11.70
2022-08-31T04:36:46.101Z,12.60
2022-08-31T04:39:12.570Z,14.40
2022-08-31T04:41:41.043Z,14.10
2022-08-31T04:44:08.454Z,14.20
2022-08-31T04:46:36.748Z,11.70
2022-08-31T04:49:03.822Z,11.10
2022-08-31T04:51:35.162Z,9.30
2022-08-31T04:54:05.691Z,13.30
2022-08-31T04:56:34.774Z,14.10
2022-08-31T04:59:03.802Z,12.20
2022-08-31T05:01:42.837Z,16.40
2022-08-31T05:04:13.046Z,15.70
2022-08-31T05:06:41.662Z,17.20
2022-08-31T05:09:11.486Z,18.80
2022-08-31T05:11:37.977Z,14.60
2022-08-31T05:14:06.026Z,20.50
2022-08-31T05:16:33.673Z,17.40
2022-08-31T05:19:00.817Z,18.70
2022-08-31T05:21:31.515Z,13.00
2022-08-31T05:24:00.768Z,16.70
2022-08-31T05:26:31.398Z,16.30
2022-08-31T05:28:59.247Z,18.50
2022-08-31T05:31:28.860Z,16.90
2022-08-31T05:33:56.728Z,18.70
2022-08-31T05:36:24.019Z,18.90
2022-08-31T05:38:50.328Z,18.10
2022-08-31T05:41:16.550Z,17.50
2022-08-31T05:43:42.645Z,20.00
2022-08-31T05:46:11.103Z,18.70
2022-08-31T05:48:37.983Z,19.70
2022-08-31T05:51:07.751Z,17.00
2022-08-31T05:53:38.212Z,19.20
2022-08-31T05:56:13.930Z,15.10
2022-08-31T05:58:44.407Z,17.60
2022-08-31T06:01:24.758Z,18.00
2022-08-31T06:03:53.659Z,15.70
2022-08-31T06:06:19.903Z,16.50
2022-08-31T06:08:46.272Z,16.70
2022-08-31T06:11:18.278Z,16.10
2022-08-31T06:13:47.128Z,19.10
2022-08-31T06:16:13.654Z,16.50
2022-08-31T06:18:43.593Z,22.00
2022-08-31T06:21:12.095Z,23.60
2022-08-31T06:23:42.016Z,20.50
2022-08-31T06:26:15.218Z,21.20
2022-08-31T06:28:46.262Z,25.30
2022-08-31T06:31:28.935Z,27.60
2022-08-31T06:33:55.650Z,28.00
2022-08-31T06:36:24.631Z,22.20
2022-08-31T06:38:51.796Z,22.70
2022-08-31T06:41:22.887Z,21.00
2022-08-31T06:43:49.225Z,23.00
2022-08-31T06:46:17.998Z,23.40
2022-08-31T06:48:45.193Z,24.50
2022-08-31T06:51:12.665Z,27.10
2022-08-31T06:53:42.249Z,24.70
2022-08-31T06:56:20.178Z,24.30
2022-08-31T06:58:50.903Z,24.00
2022-08-31T07:01:35.976Z,26.60
2022-08-31T07:04:08.725Z,31.20
2022-08-31T07:06:38.040Z,26.60
2022-08-31T07:09:06.953Z,25.00
2022-08-31T07:11:39.955Z,24.10
2022-08-31T07:14:13.363Z,26.20
2022-08-31T07:16:40.326Z,25.00
2022-08-31T07:19:06.556Z,24.90
2022-08-31T07:21:54.319Z,29.30
2022-08-31T07:24:23.767Z,23.40
2022-08-31T07:26:53.819Z,19.30
2022-08-31T07:29:22.848Z,23.30
2022-08-31T07:31:50.036Z,18.70
2022-08-31T07:34:25.950Z,19.40
2022-08-31T07:37:13.210Z,17.20
2022-08-31T07:40:04.740Z,19.70
2022-08-31T07:42:43.427Z,21.90
2022-08-31T07:45:21.279Z,26.40
2022-08-31T07:47:55.099Z,24.70
2022-08-31T07:50:22.442Z,24.00
2022-08-31T07:52:53.755Z,25.20
2022-08-31T07:55:23.313Z,24.40
2022-08-31T07:57:52.926Z,19.70
2022-08-31T08:00:32.517Z,16.90
2022-08-31T08:03:06.803Z,20.00
2022-08-31T08:05:38.104Z,20.70
2022-08-31T08:08:09.522Z,33.50
2022-08-31T08:10:52.104Z,21.50
2022-08-31T08:13:19.553Z,17.50
2022-08-31T08:15:45.927Z,22.00
2022-08-31T08:18:12.958Z,19.80
2022-08-31T08:20:39.907Z,19.50
2022-08-31T08:23:14.094Z,16.80
2022-08-31T08:25:45.763Z,19.90
2022-08-31T08:28:35.976Z,17.90
2022-08-31T08:31:02.960Z,18.90
2022-08-31T08:33:31.007Z,15.10
2022-08-31T08:36:02.701Z,16.50
2022-08-31T08:38:30.394Z,15.90
2022-08-31T08:41:01.816Z,15.40
2022-08-31T08:43:35.515Z,15.60
2022-08-31T08:46:25.195Z,21.80
2022-08-31T08:48:55.407Z,19.50
2022-08-31T08:51:30.500Z,18.40
2022-08-31T08:54:06.575Z,16.00
2022-08-31T08:56:34.231Z,17.10
2022-08-31T08:59:01.655Z,17.80
2022-08-31T09:01:29.204Z,19.00
2022-08-31T09:03:59.438Z,20.90
2022-08-31T09:06:45.562Z,23.40
2022-08-31T09:09:24.970Z,20.30
2022-08-31T09:11:52.338Z,19.80
2022-08-31T09:14:47.837Z,17.90
2022-08-31T09:17:59.871Z,18.80
2022-08-31T09:20:27.617Z,21.10
2022-08-31T09:22:56.743Z,22.20
2022-08-31T09:25:32.176Z,27.10
2022-08-31T09:28:01.105Z,23.80
2022-08-31T09:30:50.401Z,24.70
2022-08-31T09:33:24.326Z,22.50
2022-08-31T09:35:56.319Z,22.00
2022-08-31T09:38:31.711Z,19.30
2022-08-31T09:40:58.418Z,24.80
2022-08-31T09:43:36.925Z,22.60
2022-08-31T09:46:25.269Z,20.30
2022-08-31T09:49:02.581Z,23.10
2022-08-31T09:51:34.510Z,21.30
2022-08-31T09:54:23.256Z,20.20
2022-08-31T09:56:54.607Z,20.40
2022-08-31T09:59:41.519Z,26.00
2022-08-31T10:02:28.103Z,23.90
2022-08-31T12:38:19.847Z,28.80
2022-08-31T12:40:57.299Z,31.00
2022-08-31T12:43:29.223Z,31.00
2022-08-31T12:46:08.084Z,23.70
2022-08-31T12:49:13.022Z,34.70
2022-08-31T12:51:45.576Z,28.30
2022-08-31T12:54:15.095Z,28.30
2022-08-31T12:57:16.751Z,31.00
2022-08-31T13:00:13.563Z,27.20
2022-08-31T13:02:44.478Z,27.50
2022-08-31T13:05:23.160Z,25.40
2022-08-31T13:08:24.451Z,29.70
2022-08-31T13:18:35.226Z,29.60
2022-08-31T13:21:06.245Z,31.90
2022-08-31T13:23:38.720Z,32.60
2022-08-31T13:33:42.554Z,28.90
2022-08-31T13:43:59.252Z,32.70
2022-08-31T14:08:25.405Z,31.00
2022-08-31T14:22:33.283Z,21.20
2022-08-31T14:25:01.110Z,19.30
2022-08-31T14:27:29.265Z,15.10
2022-08-31T14:29:56.175Z,15.10
2022-08-31T14:32:22.889Z,21.40
2022-08-31T14:34:51.526Z,15.50
2022-08-31T14:37:29.240Z,16.90
2022-08-31T14:40:07.508Z,14.20
2022-08-31T14:42:38.371Z,16.10
2022-08-31T14:45:19.029Z,15.40
2022-08-31T14:47:48.225Z,13.80
2022-08-31T14:50:23.709Z,15.00
2022-08-31T14:52:58.661Z,12.90
2022-08-31T14:55:27.414Z,14.40
2022-08-31T14:58:02.278Z,16.20
2022-08-31T15:00:31.952Z,15.50
2022-08-31T15:03:02.788Z,16.60
2022-08-31T15:05:29.724Z,15.00
2022-08-31T15:07:57.062Z,16.40
2022-08-31T15:10:26.147Z,18.20
2022-08-31T15:12:56.150Z,14.90
2022-08-31T15:15:43.820Z,18.40
2022-08-31T15:18:37.441Z,17.60
2022-08-31T15:21:09.100Z,15.50
2022-08-31T15:23:49.805Z,15.00
2022-08-31T15:26:37.995Z,15.90
2022-08-31T15:29:06.558Z,16.10
2022-08-31T15:31:38.673Z,18.30
2022-08-31T15:34:10.014Z,14.30
2022-08-31T15:36:37.074Z,12.90
2022-08-31T15:39:04.486Z,12.80
2022-08-31T15:41:31.376Z,11.20
2022-08-31T15:43:58.161Z,11.80
2022-08-31T15:46:49.705Z,11.90
2022-08-31T15:49:17.467Z,13.70
2022-08-31T15:51:50.268Z,10.10
2022-08-31T15:54:22.499Z,10.90
2022-08-31T15:56:51.648Z,9.60
2022-08-31T15:59:18.331Z,9.80
2022-08-31T16:01:45.600Z,11.30
2022-08-31T16:04:16.574Z,12.00
2022-08-31T16:06:43.440Z,14.80
2022-08-31T16:09:10.524Z,10.30
2022-08-31T16:11:38.169Z,12.90
2022-08-31T16:14:05.756Z,12.00
2022-08-31T16:16:36.893Z,15.60
2022-08-31T16:19:06.242Z,14.30
2022-08-31T16:21:37.108Z,11.50
2022-08-31T16:24:10.375Z,10.70
2022-08-31T16:26:40.790Z,12.30
2022-08-31T16:29:13.902Z,13.10
2022-08-31T16:31:43.270Z,16.30
2022-08-31T16:34:10.538Z,13.20
2022-08-31T16:36:38.049Z,16.90
2022-08-31T16:39:05.522Z,14.00
2022-08-31T16:41:33.207Z,12.00
2022-08-31T16:44:18.818Z,11.70
2022-08-31T16:46:46.628Z,10.70
2022-08-31T16:49:32.147Z,12.60
2022-08-31T16:52:00.960Z,12.00
2022-08-31T16:54:28.846Z,15.00
2022-08-31T16:56:59.509Z,13.70
2022-08-31T16:59:29.275Z,14.70
2022-08-31T17:01:56.895Z,11.70
2022-08-31T17:04:50.385Z,10.90
2022-08-31T17:07:14.835Z,13.90
2022-08-31T17:09:42.164Z,14.80
2022-08-31T17:12:17.262Z,13.30
2022-08-31T17:14:51.703Z,13.10
2022-08-31T17:17:22.331Z,12.70
2022-08-31T17:19:49.849Z,13.00
2022-08-31T17:22:25.701Z,14.70
2022-08-31T17:24:57.921Z,16.80
2022-08-31T17:27:26.159Z,11.40
2022-08-31T20:13:03.739Z,18.70
2022-08-31T20:15:30.457Z,12.70
2022-08-31T20:17:57.959Z,15.30
2022-08-31T20:20:24.944Z,13.30
2022-08-31T20:22:54.227Z,17.20
2022-08-31T20:25:26.958Z,13.30
2022-08-31T20:27:54.907Z,17.50
2022-08-31T20:30:21.660Z,19.40
2022-08-31T20:32:48.732Z,15.40
2022-08-31T20:35:15.655Z,18.20
2022-08-31T20:37:42.369Z,11.40
2022-08-31T20:40:15.185Z,14.00
2022-08-31T20:42:42.690Z,13.10
2022-08-31T20:45:09.941Z,13.20
2022-08-31T20:47:55.345Z,19.50
2022-08-31T20:50:22.080Z,16.50
2022-08-31T20:52:48.781Z,18.70
2022-08-31T20:55:15.497Z,16.30
2022-08-31T20:57:42.279Z,13.40
2022-08-31T21:00:10.727Z,14.70
2022-08-31T21:02:39.945Z,13.10
2022-08-31T21:05:36.467Z,11.50
2022-08-31T21:07:57.345Z,14.80
2022-08-31T21:10:36.393Z,13.80
2022-08-31T21:13:05.384Z,11.00
2022-08-31T21:15:32.874Z,12.70
2022-08-31T21:18:02.355Z,14.00
2022-08-31T21:20:29.343Z,13.10
2022-08-31T21:22:56.060Z,10.90
2022-08-31T21:25:23.302Z,13.60
2022-08-31T21:27:50.148Z,11.00
2022-08-31T21:30:17.435Z,14.40
2022-08-31T21:32:44.702Z,11.50
2022-08-31T21:35:12.701Z,16.70
2022-08-31T21:37:40.428Z,13.00
2022-08-31T21:40:08.161Z,12.90
2022-08-31T21:42:34.996Z,14.70
2022-08-31T21:45:01.722Z,14.20
2022-08-31T21:47:28.827Z,14.80
2022-08-31T21:49:55.590Z,21.70
2022-08-31T21:52:22.318Z,16.00
2022-08-31T21:54:48.964Z,16.90
2022-08-31T21:57:16.310Z,17.60
2022-08-31T21:59:43.071Z,14.10
2022-08-31T22:02:12.105Z,17.40
2022-08-31T22:04:43.525Z,15.90
2022-08-31T22:07:14.334Z,17.20
2022-08-31T22:09:41.978Z,13.10
2022-08-31T22:12:10.177Z,16.00
2022-08-31T22:14:38.866Z,18.20
2022-08-31T22:17:08.420Z,13.70
2022-08-31T22:19:39.003Z,15.00
2022-08-31T22:22:11.971Z,11.90
2022-08-31T22:24:39.666Z,16.60
2022-08-31T22:27:09.129Z,14.80
2022-08-31T22:29:38.168Z,14.40
2022-08-31T22:32:12.156Z,15.80
2022-08-31T22:34:42.184Z,13.40
2022-08-31T22:37:09.306Z,14.80
2022-08-31T22:39:36.772Z,11.70
2022-08-31T22:42:05.110Z,14.50
2022-08-31T22:44:35.839Z,26.90
2022-08-31T22:47:04.267Z,26.90
2022-08-31T22:49:31.492Z,27.20
2022-08-31T22:51:58.417Z,28.10
2022-08-31T22:54:26.227Z,27.50
2022-08-31T22:56:53.641Z,24.00
2022-08-31T22:59:27.676Z,25.30
2022-08-31T23:01:59.343Z,19.30
2022-08-31T23:04:28.339Z,15.30
2022-08-31T23:06:59.262Z,15.30
2022-08-31T23:09:30.545Z,15.80
2022-08-31T23:12:00.143Z,18.10
2022-08-31T23:14:28.060Z,12.60
2022-08-31T23:16:58.095Z,14.70
2022-08-31T23:19:31.130Z,13.80
2022-08-31T23:21:59.433Z,13.10
2022-08-31T23:24:30.911Z,12.50
2022-08-31T23:27:04.231Z,12.60
2022-08-31T23:29:48.036Z,16.40
2022-08-31T23:32:18.988Z,15.90
2022-08-31T23:34:49.391Z,16.30
2022-08-31T23:37:17.975Z,17.60
2022-08-31T23:39:48.338Z,15.80
2022-08-31T23:42:17.053Z,11.70
2022-08-31T23:44:46.627Z,17.40
2022-08-31T23:47:20.413Z,14.20
2022-08-31T23:49:51.429Z,11.30
2022-08-31T23:52:21.517Z,12.80
2022-08-31T23:54:50.702Z,16.50
2022-08-31T23:57:32.054Z,12.40
